Time;durP1;ratioP1;P1;durP2;ratioP2;P2;SDS_P1;SDS_P2;PMS_P1;PMS_P2;Temp;Humidity;BMP_temperature;BMP_pressure;BME280_temperature;BME280_humidity;BME280_pressure;Samples;Min_cycle;Max_cycle;Signal;HPM_P1;HPM_P2
2022/12/24 00:00:45;;;;;;;33.60;16.42;;;9.00;99.90;;;;;;5049856;28;20033;-56
2022/12/24 00:03:11;;;;;;;30.87;18.23;;;9.00;99.90;;;;;;5041020;28;20041;-55
2022/12/24 00:05:37;;;;;;;28.60;18.17;;;9.10;99.90;;;;;;5048013;28;20047;-54
2022/12/24 00:08:02;;;;;;;24.92;18.05;;;9.10;99.90;;;;;;5049502;28;20131;-56
2022/12/24 00:10:28;;;;;;;22.43;17.53;;;9.20;99.90;;;;;;5046017;28;20103;-57
2022/12/24 00:12:53;;;;;;;25.47;15.93;;;9.20;99.90;;;;;;5046672;28;20283;-56
2022/12/24 00:15:19;;;;;;;27.80;16.47;;;9.20;99.90;;;;;;5047192;28;20041;-57
2022/12/24 00:17:44;;;;;;;20.87;14.07;;;9.20;99.90;;;;;;5048839;28;20083;-56
2022/12/24 00:20:10;;;;;;;23.90;15.33;;;9.30;99.90;;;;;;5080760;28;20076;-57
2022/12/24 00:22:36;;;;;;;17.67;11.53;;;9.30;99.90;;;;;;5049210;28;20033;-56
2022/12/24 00:25:01;;;;;;;19.07;12.77;;;9.30;99.90;;;;;;5047754;28;20055;-54
2022/12/24 00:27:27;;;;;;;18.00;10.93;;;9.30;99.90;;;;;;5047857;28;20768;-55
2022/12/24 00:29:52;;;;;;;8.70;7.47;;;9.30;99.90;;;;;;5048810;28;20418;-53
2022/12/24 00:32:18;;;;;;;15.70;9.07;;;9.30;99.90;;;;;;5050143;28;20032;-53
2022/12/24 00:34:43;;;;;;;11.07;7.70;;;9.30;99.90;;;;;;5047652;28;20033;-55
2022/12/24 00:37:09;;;;;;;11.33;7.23;;;9.30;99.90;;;;;;5049474;28;20187;-57
2022/12/24 00:39:34;;;;;;;13.93;7.83;;;9.30;99.90;;;;;;5049477;28;20033;-53
2022/12/24 00:42:00;;;;;;;16.33;7.00;;;9.30;99.90;;;;;;5049804;28;20468;-54
2022/12/24 00:44:25;;;;;;;10.60;6.17;;;9.30;99.90;;;;;;5048086;28;20452;-56
2022/12/24 00:46:51;;;;;;;8.27;6.50;;;9.40;99.90;;;;;;5049642;28;20037;-55
2022/12/24 00:49:17;;;;;;;13.17;6.37;;;9.40;99.90;;;;;;5048584;28;20049;-53
2022/12/24 00:51:42;;;;;;;17.33;6.65;;;9.30;99.90;;;;;;5030143;28;20490;-53
2022/12/24 00:54:08;;;;;;;15.00;7.37;;;9.40;99.90;;;;;;5035496;28;20044;-54
2022/12/24 00:56:34;;;;;;;14.43;6.33;;;9.40;99.90;;;;;;5049267;28;20296;-55
2022/12/24 00:58:59;;;;;;;15.37;7.30;;;9.40;99.90;;;;;;5048838;28;20838;-53
2022/12/24 01:01:26;;;;;;;11.02;5.97;;;9.40;99.90;;;;;;5048732;28;20033;-56
2022/12/24 01:05:08;;;;;;;9.77;5.68;;;9.40;99.90;;;;;;5047911;28;20044;-53
2022/12/24 01:06:38;;;;;;;5.93;4.28;;;9.30;99.90;;;;;;5049178;28;20545;-54
2022/12/24 01:09:03;;;;;;;7.67;4.77;;;9.30;99.90;;;;;;5049195;28;20120;-54
2022/12/24 01:11:29;;;;;;;9.03;3.50;;;9.30;99.90;;;;;;5048754;28;20116;-56
2022/12/24 01:13:55;;;;;;;5.43;3.37;;;9.30;99.90;;;;;;5048461;28;20040;-55
2022/12/24 01:16:20;;;;;;;5.50;3.30;;;9.30;99.90;;;;;;5049665;28;20153;-56
2022/12/24 01:18:46;;;;;;;5.55;4.63;;;9.30;99.90;;;;;;5053237;28;20549;-55
2022/12/24 01:21:12;;;;;;;5.67;4.33;;;9.30;99.90;;;;;;5053095;28;20044;-54
2022/12/24 01:23:37;;;;;;;7.30;3.87;;;9.40;99.90;;;;;;5051839;28;20520;-55
2022/12/24 01:26:04;;;;;;;9.67;4.83;;;9.40;99.90;;;;;;5052288;28;20400;-53
2022/12/24 01:28:31;;;;;;;10.02;6.22;;;9.40;99.90;;;;;;5052592;28;20053;-52
2022/12/24 01:30:56;;;;;;;6.65;4.72;;;9.40;99.90;;;;;;5034343;28;20187;-54
2022/12/24 01:33:22;;;;;;;6.43;5.03;;;9.40;99.90;;;;;;5052153;28;20541;-57
2022/12/24 01:35:48;;;;;;;5.60;5.10;;;9.40;99.90;;;;;;5053077;28;20082;-55
2022/12/24 01:38:13;;;;;;;9.90;3.70;;;9.40;99.90;;;;;;5052183;28;20681;-56
2022/12/24 01:43:27;;;;;;;6.63;2.40;;;9.40;99.90;;;;;;5047300;28;20045;-53
2022/12/24 01:45:58;;;;;;;5.13;1.15;;;9.40;99.90;;;;;;5044160;28;20152;-55
2022/12/24 01:48:40;;;;;;;8.82;1.85;;;9.40;99.90;;;;;;5052126;28;20037;-54
2022/12/24 01:51:11;;;;;;;5.07;1.85;;;9.40;99.90;;;;;;5051874;28;20167;-55
2022/12/24 01:53:40;;;;;;;9.63;3.00;;;9.30;99.90;;;;;;5050232;28;20068;-56
2022/12/24 01:56:08;;;;;;;9.00;4.05;;;9.30;99.90;;;;;;5052319;28;20045;-56
2022/12/24 01:58:35;;;;;;;17.55;5.13;;;9.30;99.90;;;;;;5051862;28;20047;-54
2022/12/24 02:01:01;;;;;;;17.38;5.78;;;9.30;99.90;;;;;;5052457;28;20048;-55
2022/12/24 02:03:27;;;;;;;11.63;5.50;;;9.30;99.90;;;;;;5050983;28;20087;-54
2022/12/24 02:05:56;;;;;;;18.17;6.03;;;9.30;99.90;;;;;;5052512;28;20037;-56
2022/12/24 02:08:22;;;;;;;20.05;7.00;;;9.20;99.90;;;;;;5051181;28;20276;-56
2022/12/24 02:10:48;;;;;;;19.25;7.68;;;9.20;99.90;;;;;;5052734;28;20383;-57
2022/12/24 02:13:19;;;;;;;33.58;8.27;;;9.20;99.90;;;;;;5050947;28;20055;-56
2022/12/24 02:16:02;;;;;;;29.10;7.70;;;9.20;99.90;;;;;;5052733;28;20045;-55
2022/12/24 02:18:39;;;;;;;28.95;6.43;;;9.20;99.90;;;;;;5051510;28;20082;-57
2022/12/24 02:22:04;;;;;;;39.42;7.25;;;9.20;99.90;;;;;;5052129;28;20049;-55
2022/12/24 02:24:51;;;;;;;43.20;7.63;;;9.20;99.90;;;;;;5048292;28;20064;-56
2022/12/24 02:27:38;;;;;;;36.30;6.25;;;9.20;99.90;;;;;;5050762;28;20067;-54
2022/12/24 02:30:19;;;;;;;34.33;4.80;;;9.20;99.90;;;;;;5041996;28;20049;-56
2022/12/24 02:32:57;;;;;;;48.10;5.90;;;9.30;99.90;;;;;;5051095;28;20064;-57
2022/12/24 02:35:45;;;;;;;39.50;6.30;;;9.30;99.90;;;;;;5050428;28;20063;-57
2022/12/24 02:38:37;;;;;;;35.88;5.55;;;9.30;99.90;;;;;;5050144;28;20041;-56
2022/12/24 02:41:10;;;;;;;43.63;6.15;;;9.40;99.90;;;;;;5051252;28;20079;-56
2022/12/24 02:43:39;;;;;;;43.97;6.10;;;9.40;99.90;;;;;;5049795;28;20033;-56
2022/12/24 02:46:15;;;;;;;30.88;5.10;;;9.40;99.90;;;;;;5051700;28;20105;-56
2022/12/24 02:48:43;;;;;;;41.85;6.22;;;9.40;99.90;;;;;;5051192;28;20455;-53
2022/12/24 02:51:10;;;;;;;39.58;5.60;;;9.40;99.90;;;;;;5051427;28;20056;-57
2022/12/24 02:53:36;;;;;;;36.55;6.78;;;9.40;99.90;;;;;;5050262;28;20493;-56
2022/12/24 02:56:02;;;;;;;;;;;9.30;99.90;;;;;;5050741;28;20482;-54
2022/12/24 02:58:55;;;;;;;33.67;5.72;;;9.40;99.90;;;;;;5050682;28;19927;-53
2022/12/24 03:01:38;;;;;;;35.17;5.65;;;9.40;99.90;;;;;;5051248;28;20068;-56
2022/12/24 03:04:39;;;;;;;33.90;7.30;;;9.40;99.90;;;;;;5038557;28;20037;-56
2022/12/24 03:07:08;;;;;;;38.15;5.68;;;9.50;99.90;;;;;;5049606;28;20092;-57
2022/12/24 03:10:03;;;;;;;38.45;6.45;;;9.50;99.90;;;;;;5050527;28;20080;-56
2022/12/24 03:12:38;;;;;;;40.97;6.13;;;9.50;99.90;;;;;;5044635;28;20509;-56
2022/12/24 03:15:05;;;;;;;30.60;4.65;;;9.50;99.90;;;;;;5048512;28;20115;-54
2022/12/24 03:17:35;;;;;;;39.47;6.15;;;9.50;99.90;;;;;;5050673;28;20045;-54
2022/12/24 03:20:01;;;;;;;27.48;4.28;;;9.60;99.90;;;;;;5050938;28;20044;-53
2022/12/24 03:22:27;;;;;;;32.53;5.38;;;9.60;99.90;;;;;;5050550;28;20549;-53
2022/12/24 03:24:54;;;;;;;45.38;7.32;;;9.50;99.90;;;;;;5049627;28;20033;-54
2022/12/24 03:27:20;;;;;;;38.67;6.70;;;9.50;99.90;;;;;;5050564;28;20060;-55
2022/12/24 03:29:46;;;;;;;40.15;6.20;;;9.50;99.90;;;;;;5050310;28;20045;-54
2022/12/24 03:32:11;;;;;;;33.95;6.55;;;9.50;99.90;;;;;;5050845;28;20037;-56
2022/12/24 03:34:37;;;;;;;51.15;6.35;;;9.50;99.90;;;;;;5048731;28;20087;-55
2022/12/24 03:37:03;;;;;;;35.93;5.93;;;9.50;99.90;;;;;;5064471;28;20494;-55
2022/12/24 03:39:28;;;;;;;38.53;6.38;;;9.50;99.90;;;;;;5050414;28;20029;-54
2022/12/24 03:41:54;;;;;;;40.43;6.50;;;9.50;99.90;;;;;;5050566;28;20059;-56
2022/12/24 03:44:19;;;;;;;42.10;5.93;;;9.50;99.90;;;;;;5049311;28;20471;-54
2022/12/24 03:46:45;;;;;;;42.70;6.47;;;9.50;99.90;;;;;;5045251;28;20284;-54
2022/12/24 03:49:10;;;;;;;42.53;6.60;;;9.50;99.90;;;;;;5037740;28;20059;-56
2022/12/24 03:51:36;;;;;;;49.10;6.33;;;9.50;99.90;;;;;;5050155;28;20128;-53
2022/12/24 03:54:01;;;;;;;40.20;6.33;;;9.50;99.90;;;;;;5049437;28;20128;-57
2022/12/24 03:56:27;;;;;;;45.03;7.13;;;9.50;99.90;;;;;;5048073;28;20041;-56
2022/12/24 03:58:53;;;;;;;38.70;6.97;;;9.50;99.90;;;;;;5049928;28;20417;-56
2022/12/24 04:01:18;;;;;;;40.30;6.93;;;9.50;99.90;;;;;;5049516;28;20033;-53
2022/12/24 04:03:44;;;;;;;39.20;7.63;;;9.50;99.90;;;;;;5041960;28;20033;-53
2022/12/24 04:06:13;;;;;;;41.22;8.65;;;9.50;99.90;;;;;;5035431;28;20045;-57
2022/12/24 04:08:39;;;;;;;26.55;5.50;;;9.50;99.90;;;;;;5050117;28;20036;-56
2022/12/24 04:11:06;;;;;;;;;;;9.50;99.90;;;;;;5050279;28;20175;-53
2022/12/24 04:13:31;;;;;;;34.75;6.32;;;9.50;99.90;;;;;;5049027;28;20042;-54
2022/12/24 04:15:58;;;;;;;41.50;5.67;;;9.50;99.90;;;;;;5049501;28;20250;-57
2022/12/24 04:18:24;;;;;;;38.85;7.30;;;9.50;99.90;;;;;;5082066;28;20459;-55
2022/12/24 04:20:50;;;;;;;40.65;7.82;;;9.50;99.90;;;;;;5050120;28;20128;-56
2022/12/24 04:23:16;;;;;;;29.45;6.28;;;9.50;99.90;;;;;;5079616;28;20041;-56
2022/12/24 04:25:41;;;;;;;43.97;7.27;;;9.50;99.90;;;;;;5049699;28;20518;-56
2022/12/24 04:28:07;;;;;;;43.23;7.87;;;9.50;99.90;;;;;;5048826;28;20459;-56
2022/12/24 04:30:32;;;;;;;43.70;6.20;;;9.50;99.90;;;;;;5050042;28;20052;-56
2022/12/24 04:32:58;;;;;;;48.53;6.40;;;9.50;99.90;;;;;;5048602;28;20780;-56
2022/12/24 04:35:23;;;;;;;29.90;5.47;;;9.50;99.90;;;;;;5049411;28;20040;-56
2022/12/24 04:37:49;;;;;;;47.17;7.10;;;9.50;99.90;;;;;;5049435;28;20118;-55
2022/12/24 04:40:15;;;;;;;37.70;6.47;;;9.50;99.90;;;;;;5049355;28;20044;-57
2022/12/24 04:42:40;;;;;;;37.73;7.27;;;9.50;99.90;;;;;;5049014;28;20040;-56
2022/12/24 04:45:06;;;;;;;43.87;7.80;;;9.40;99.90;;;;;;5049043;28;20500;-56
2022/12/24 04:47:32;;;;;;;44.47;8.77;;;9.40;99.90;;;;;;5049135;28;20282;-56
2022/12/24 04:49:58;;;;;;;43.10;6.80;;;9.40;99.90;;;;;;5049765;28;20409;-57
2022/12/24 04:52:23;;;;;;;45.90;7.95;;;9.40;99.90;;;;;;5048617;28;20044;-57
2022/12/24 04:54:49;;;;;;;40.40;6.60;;;9.40;99.90;;;;;;5048271;28;20037;-56
2022/12/24 04:57:14;;;;;;;33.40;7.53;;;9.30;99.90;;;;;;5048899;28;20067;-56
2022/12/24 04:59:40;;;;;;;48.57;7.53;;;9.40;99.90;;;;;;5049691;28;20430;-55
2022/12/24 05:02:05;;;;;;;42.60;6.97;;;9.40;99.90;;;;;;5049471;28;20076;-56
2022/12/24 05:04:31;;;;;;;36.33;6.10;;;9.30;99.90;;;;;;5047723;28;20033;-55
2022/12/24 05:06:56;;;;;;;58.57;9.30;;;9.40;99.90;;;;;;5064253;28;20073;-53
2022/12/24 05:09:22;;;;;;;47.80;8.10;;;9.30;99.90;;;;;;5048887;28;20049;-56
2022/12/24 05:11:47;;;;;;;39.87;7.20;;;9.40;99.90;;;;;;5080946;28;20057;-53
2022/12/24 05:14:13;;;;;;;46.70;8.90;;;9.30;99.90;;;;;;5047741;28;20079;-57
2022/12/24 05:16:38;;;;;;;48.03;8.17;;;9.30;99.90;;;;;;5049321;28;20037;-55
2022/12/24 05:19:04;;;;;;;51.27;6.63;;;9.30;99.90;;;;;;5047909;28;20079;-55
2022/12/24 05:21:30;;;;;;;51.17;8.63;;;9.30;99.90;;;;;;5049364;28;20087;-55
2022/12/24 05:26:48;;;;;;;44.53;7.30;;;9.30;99.90;;;;;;5049773;28;20045;-56
2022/12/24 05:29:14;;;;;;;39.92;7.45;;;9.40;99.90;;;;;;5047092;28;20052;-55
2022/12/24 05:31:41;;;;;;;42.58;6.15;;;9.40;99.90;;;;;;5049433;28;20063;-53
2022/12/24 05:34:07;;;;;;;47.03;7.13;;;9.30;99.90;;;;;;5047802;28;20033;-54
2022/12/24 05:36:33;;;;;;;44.58;7.47;;;9.40;99.90;;;;;;5047595;28;20241;-56
2022/12/24 05:38:59;;;;;;;39.83;7.80;;;9.30;99.90;;;;;;5048436;28;20409;-53
2022/12/24 05:41:24;;;;;;;48.78;7.32;;;9.40;99.90;;;;;;5048580;28;20140;-56
2022/12/24 05:43:50;;;;;;;46.80;8.73;;;9.30;99.90;;;;;;5048165;28;20037;-57
2022/12/24 05:46:18;;;;;;;52.17;8.35;;;9.30;99.90;;;;;;5049058;28;20731;-55
2022/12/24 05:48:44;;;;;;;43.40;7.57;;;9.30;99.90;;;;;;5049072;28;20083;-52
2022/12/24 05:51:11;;;;;;;47.00;7.28;;;9.30;99.90;;;;;;5031008;28;20072;-55
2022/12/24 05:53:37;;;;;;;44.05;7.60;;;9.30;99.90;;;;;;5048207;28;20055;-53
2022/12/24 05:56:11;;;;;;;35.60;7.35;;;9.30;99.90;;;;;;5049118;28;20110;-52
2022/12/24 05:58:40;;;;;;;38.33;6.57;;;9.30;99.90;;;;;;5047306;28;20056;-56
2022/12/24 06:01:06;;;;;;;49.05;7.93;;;9.30;99.90;;;;;;5048702;28;20449;-53
2022/12/24 06:03:32;;;;;;;;;;;9.30;99.90;;;;;;5049677;28;20037;-55
2022/12/24 06:06:03;;;;;;;32.90;5.75;;;9.30;99.90;;;;;;5051922;28;20404;-53
2022/12/24 06:08:29;;;;;;;35.72;6.68;;;9.30;99.90;;;;;;5051853;28;20140;-55
2022/12/24 06:10:57;;;;;;;41.25;6.05;;;9.30;99.90;;;;;;5051774;28;20037;-56
2022/12/24 06:13:22;;;;;;;38.80;6.78;;;9.30;99.90;;;;;;5051276;28;20112;-54
2022/12/24 06:15:48;;;;;;;57.70;8.38;;;9.30;99.90;;;;;;5051521;28;20905;-54
2022/12/24 06:18:14;;;;;;;31.83;6.17;;;9.30;99.90;;;;;;5051041;28;20033;-57
2022/12/24 06:20:39;;;;;;;37.27;5.53;;;9.20;99.90;;;;;;5050512;28;20041;-57
2022/12/24 06:23:05;;;;;;;44.70;7.70;;;9.20;99.90;;;;;;5050419;28;20078;-57
2022/12/24 06:25:30;;;;;;;35.50;6.70;;;9.20;99.90;;;;;;5050578;28;20068;-54
2022/12/24 06:27:56;;;;;;;36.73;7.27;;;9.20;99.90;;;;;;5051079;28;20041;-56
2022/12/24 06:30:21;;;;;;;33.07;6.03;;;9.20;99.90;;;;;;5047468;28;20037;-57
2022/12/24 06:32:47;;;;;;;36.73;6.93;;;9.20;99.90;;;;;;5051284;28;20178;-56
2022/12/24 06:35:12;;;;;;;28.73;5.57;;;9.20;99.90;;;;;;5050929;28;20502;-57
2022/12/24 06:37:38;;;;;;;45.27;6.50;;;9.20;99.90;;;;;;5051625;28;20501;-57
2022/12/24 06:40:04;;;;;;;40.30;6.17;;;9.20;99.90;;;;;;5051401;28;20136;-56
2022/12/24 06:42:29;;;;;;;48.40;6.80;;;9.20;99.90;;;;;;5051473;28;20040;-54
2022/12/24 06:44:55;;;;;;;31.50;5.30;;;9.20;99.90;;;;;;5050325;28;20040;-56
2022/12/24 06:47:20;;;;;;;36.27;5.27;;;9.10;99.90;;;;;;5050926;28;20123;-56
2022/12/24 06:49:46;;;;;;;31.10;5.63;;;9.10;99.90;;;;;;5051624;28;20044;-57
2022/12/24 06:52:13;;;;;;;40.53;6.40;;;9.10;99.90;;;;;;5050616;28;20041;-55
2022/12/24 06:54:38;;;;;;;25.80;5.25;;;9.00;99.90;;;;;;5049762;28;20041;-57
2022/12/24 06:57:06;;;;;;;45.17;7.23;;;9.00;99.90;;;;;;5049686;28;20059;-57
2022/12/24 06:59:31;;;;;;;41.03;6.22;;;8.90;99.90;;;;;;5051170;28;20048;-57
2022/12/24 07:01:57;;;;;;;36.50;6.33;;;8.90;99.90;;;;;;5042158;28;20033;-57
2022/12/24 07:04:22;;;;;;;45.75;6.75;;;8.90;99.90;;;;;;5049729;28;20453;-57
2022/12/24 07:06:48;;;;;;;37.00;6.93;;;8.90;99.90;;;;;;5049961;28;20116;-57
2022/12/24 07:09:14;;;;;;;39.10;6.70;;;8.90;99.90;;;;;;5050758;28;20498;-57
2022/12/24 07:11:39;;;;;;;28.73;4.97;;;8.90;99.90;;;;;;5050457;28;20549;-57
2022/12/24 07:14:05;;;;;;;43.33;7.35;;;8.90;99.90;;;;;;5049835;28;20072;-57
2022/12/24 07:16:30;;;;;;;34.50;6.33;;;8.90;99.90;;;;;;5049917;28;20073;-54
2022/12/24 07:18:56;;;;;;;37.93;7.00;;;8.90;99.90;;;;;;5050388;28;20670;-53
2022/12/24 07:21:21;;;;;;;33.07;5.20;;;8.80;99.90;;;;;;5050416;28;20068;-53
2022/12/24 07:23:48;;;;;;;51.53;7.90;;;8.80;99.90;;;;;;5049375;28;20032;-56
2022/12/24 07:26:13;;;;;;;49.30;6.65;;;8.80;99.90;;;;;;5046287;28;20048;-56
2022/12/24 07:28:39;;;;;;;46.50;7.83;;;8.80;99.90;;;;;;5050017;28;20410;-55
2022/12/24 07:31:04;;;;;;;43.50;6.57;;;8.90;99.90;;;;;;5050959;28;20068;-56
2022/12/24 07:33:30;;;;;;;36.77;5.77;;;8.80;99.90;;;;;;5049190;28;20291;-54
2022/12/24 07:36:05;;;;;;;44.13;6.07;;;8.90;99.90;;;;;;5032969;28;20055;-53
2022/12/24 07:38:31;;;;;;;55.15;7.95;;;8.90;99.90;;;;;;5050014;28;20410;-56
2022/12/24 07:40:57;;;;;;;45.45;6.00;;;8.90;99.90;;;;;;5048852;28;20029;-56
2022/12/24 07:43:23;;;;;;;43.70;7.50;;;8.90;99.90;;;;;;5045924;28;20036;-56
2022/12/24 07:45:49;;;;;;;47.65;7.78;;;8.90;99.90;;;;;;5050243;28;20291;-55
2022/12/24 07:48:14;;;;;;;47.65;7.68;;;8.90;99.90;;;;;;5050080;28;20403;-54
2022/12/24 07:50:40;;;;;;;50.25;8.63;;;8.90;99.90;;;;;;5050794;28;20391;-56
2022/12/24 07:53:06;;;;;;;41.80;6.93;;;8.90;99.90;;;;;;5049020;28;20078;-56
2022/12/24 07:55:32;;;;;;;47.33;7.30;;;8.90;99.90;;;;;;5030463;28;20584;-54
2022/12/24 07:57:57;;;;;;;48.30;7.93;;;8.90;99.90;;;;;;5042944;28;20144;-54
2022/12/24 08:00:23;;;;;;;44.60;8.17;;;9.00;99.90;;;;;;5049290;28;20037;-53
2022/12/24 08:02:48;;;;;;;42.63;7.00;;;9.00;99.90;;;;;;5049873;28;20090;-55
2022/12/24 08:05:14;;;;;;;35.93;5.57;;;9.00;99.90;;;;;;5048558;28;20074;-53
2022/12/24 08:07:39;;;;;;;41.88;7.80;;;9.00;99.90;;;;;;5050128;28;20353;-54
2022/12/24 08:10:06;;;;;;;37.97;7.60;;;9.00;99.90;;;;;;5042411;28;20033;-56
2022/12/24 08:12:31;;;;;;;;;;;9.00;99.90;;;;;;5049796;28;20035;-54
2022/12/24 08:14:57;;;;;;;44.10;6.82;;;9.10;99.90;;;;;;5047643;28;19917;-53
2022/12/24 08:17:22;;;;;;;39.17;7.13;;;9.10;99.90;;;;;;5048781;28;20033;-56
2022/12/24 08:19:48;;;;;;;52.70;7.30;;;9.10;99.90;;;;;;5049052;28;20047;-54
2022/12/24 08:22:14;;;;;;;52.80;6.83;;;9.10;99.90;;;;;;5048541;28;20118;-56
2022/12/24 08:24:40;;;;;;;47.42;9.07;;;9.10;99.90;;;;;;5048633;28;20078;-58
2022/12/24 08:27:05;;;;;;;44.30;7.93;;;9.20;99.90;;;;;;5048308;28;20069;-54
2022/12/24 08:29:31;;;;;;;45.50;8.90;;;9.20;99.90;;;;;;5048905;28;20283;-56
2022/12/24 08:31:57;;;;;;;50.28;7.88;;;9.20;99.90;;;;;;5049034;28;20071;-57
2022/12/24 08:34:22;;;;;;;43.00;8.20;;;9.20;99.90;;;;;;5048768;28;20126;-56
2022/12/24 08:36:48;;;;;;;42.37;8.00;;;9.20;99.90;;;;;;5048928;28;20041;-55
2022/12/24 08:39:13;;;;;;;42.63;8.77;;;9.20;99.90;;;;;;5049086;28;20413;-57
2022/12/24 08:41:39;;;;;;;43.97;7.93;;;9.30;99.90;;;;;;5048815;28;20132;-57
2022/12/24 08:44:05;;;;;;;46.83;7.65;;;9.20;99.90;;;;;;5048390;28;20036;-56
2022/12/24 08:46:30;;;;;;;40.73;7.80;;;9.30;99.90;;;;;;5049614;28;20502;-54
2022/12/24 08:48:56;;;;;;;39.20;9.07;;;9.30;99.90;;;;;;5048777;28;20108;-55
2022/12/24 08:51:21;;;;;;;44.00;7.50;;;9.30;99.90;;;;;;5049178;28;20110;-56
2022/12/24 08:53:47;;;;;;;42.97;8.30;;;9.40;99.90;;;;;;5047672;28;20037;-57
2022/12/24 08:56:13;;;;;;;32.13;7.03;;;9.40;99.90;;;;;;5049298;28;20353;-58
2022/12/24 08:58:39;;;;;;;46.65;8.65;;;9.40;99.90;;;;;;5047127;28;20059;-56
2022/12/24 09:01:18;;;;;;;;;;;9.40;99.90;;;;;;5049805;28;20402;-57
2022/12/24 09:03:44;;;;;;;24.27;6.75;;;9.50;99.90;;;;;;5045504;28;19925;-56
2022/12/24 09:06:10;;;;;;;33.53;6.72;;;9.50;99.90;;;;;;5045313;28;20052;-57
2022/12/24 09:08:36;;;;;;;38.28;7.40;;;9.40;99.90;;;;;;5048394;28;20033;-56
2022/12/24 09:11:07;;;;;;;36.05;7.93;;;9.50;99.90;;;;;;5048836;28;20044;-57
2022/12/24 09:13:33;;;;;;;39.33;7.28;;;9.50;99.90;;;;;;5047182;28;20044;-57
2022/12/24 09:15:59;;;;;;;35.40;8.60;;;9.50;99.90;;;;;;5048922;28;20406;-56
2022/12/24 09:18:25;;;;;;;27.90;7.30;;;9.60;99.90;;;;;;5048342;28;20126;-57
2022/12/24 09:20:50;;;;;;;36.33;8.15;;;9.60;99.90;;;;;;5043142;28;20037;-57
2022/12/24 09:23:16;;;;;;;40.97;8.77;;;9.60;99.90;;;;;;5047997;28;20052;-58
2022/12/24 09:25:42;;;;;;;35.03;7.53;;;9.60;99.90;;;;;;5048351;28;20040;-57
2022/12/24 09:28:08;;;;;;;44.35;8.13;;;9.60;99.90;;;;;;5048489;28;20514;-58
2022/12/24 09:30:35;;;;;;;40.40;8.07;;;9.70;99.90;;;;;;5049203;28;20045;-58
2022/12/24 09:33:00;;;;;;;42.33;7.75;;;9.70;99.90;;;;;;5040985;28;20116;-58
2022/12/24 09:35:26;;;;;;;51.30;9.93;;;9.70;99.90;;;;;;5048789;28;20128;-58
2022/12/24 09:38:01;;;;;;;41.20;7.50;;;9.70;99.90;;;;;;5049328;28;20033;-55
2022/12/24 09:40:35;;;;;;;53.13;8.32;;;9.80;99.90;;;;;;5032655;28;20044;-57
2022/12/24 09:43:14;;;;;;;36.03;6.43;;;9.80;99.90;;;;;;5048117;28;20452;-55
2022/12/24 09:46:03;;;;;;;39.30;7.93;;;9.90;99.90;;;;;;5034106;28;20041;-56
2022/12/24 09:48:32;;;;;;;44.38;8.05;;;9.90;99.90;;;;;;5047541;28;20060;-55
2022/12/24 09:51:08;;;;;;;38.30;7.63;;;9.90;99.90;;;;;;5052676;28;20055;-55
2022/12/24 09:53:40;;;;;;;41.42;9.60;;;9.80;99.90;;;;;;5051159;28;20399;-54
2022/12/24 09:56:20;;;;;;;46.70;9.57;;;9.90;99.90;;;;;;5052477;28;20487;-55
2022/12/24 09:58:53;;;;;;;38.08;7.72;;;9.80;99.90;;;;;;5051649;28;20064;-56
2022/12/24 10:01:18;;;;;;;42.05;6.35;;;9.80;99.90;;;;;;5051479;28;20108;-57
2022/12/24 10:03:45;;;;;;;38.77;7.07;;;9.90;99.90;;;;;;5050203;28;20563;-55
2022/12/24 10:06:21;;;;;;;44.40;8.38;;;9.80;99.90;;;;;;5051339;28;20502;-56
2022/12/24 10:08:55;;;;;;;37.08;5.90;;;9.80;99.90;;;;;;5051687;28;20130;-55
2022/12/24 10:11:59;;;;;;;28.25;5.18;;;9.80;99.90;;;;;;5052156;28;20048;-54
2022/12/24 10:14:51;;;;;;;25.42;5.80;;;9.70;99.90;;;;;;5046711;28;20529;-53
2022/12/24 10:17:54;;;;;;;31.67;4.90;;;9.70;99.90;;;;;;5048137;28;20446;-53
2022/12/24 10:20:31;;;;;;;37.45;6.82;;;9.70;99.90;;;;;;4997141;28;20057;-55
2022/12/24 10:23:29;;;;;;;25.77;5.15;;;9.60;99.90;;;;;;5042442;28;20384;-57
2022/12/24 10:26:16;;;;;;;30.60;4.70;;;9.60;99.90;;;;;;5050701;28;20033;-57
2022/12/24 10:28:45;;;;;;;26.27;4.13;;;9.50;99.90;;;;;;5050458;28;20064;-54
2022/12/24 10:31:10;;;;;;;20.67;3.33;;;9.60;99.90;;;;;;5051673;28;20055;-54
2022/12/24 10:33:50;;;;;;;26.27;4.60;;;9.50;99.90;;;;;;5050694;28;20392;-55
2022/12/24 10:36:19;;;;;;;23.55;3.83;;;9.50;99.90;;;;;;5051225;28;20049;-55
2022/12/24 10:38:45;;;;;;;21.85;4.43;;;9.50;99.90;;;;;;5050554;28;20029;-55
2022/12/24 10:41:11;;;;;;;;;;;9.50;99.90;;;;;;5052017;28;20045;-56
2022/12/24 10:43:40;;;;;;;24.83;4.82;;;9.50;99.90;;;;;;5049900;28;19931;-57
2022/12/24 10:46:12;;;;;;;28.98;5.88;;;9.50;99.90;;;;;;5051080;28;20045;-53
2022/12/24 10:48:59;;;;;;;40.58;7.40;;;9.50;99.90;;;;;;5049385;28;20039;-56
2022/12/24 10:51:40;;;;;;;44.60;8.47;;;9.60;99.90;;;;;;5051307;28;20055;-57
2022/12/24 10:54:15;;;;;;;33.78;6.75;;;9.60;99.90;;;;;;5050364;28;20048;-55
2022/12/24 10:56:43;;;;;;;27.90;6.47;;;9.70;99.90;;;;;;5051017;28;20398;-57
2022/12/24 10:59:24;;;;;;;34.85;6.22;;;9.70;99.90;;;;;;5050648;28;20490;-57
2022/12/24 11:01:50;;;;;;;42.70;8.05;;;9.70;99.90;;;;;;5034847;28;20406;-57
2022/12/24 11:04:21;;;;;;;29.95;5.78;;;9.70;99.90;;;;;;5050549;28;20029;-55
2022/12/24 11:07:05;;;;;;;41.78;6.65;;;9.70;99.90;;;;;;5050814;28;20162;-55
2022/12/24 11:09:39;;;;;;;44.10;8.48;;;9.70;99.90;;;;;;5050818;28;20048;-56
2022/12/24 11:12:14;;;;;;;34.30;8.40;;;9.70;99.90;;;;;;5050269;28;20048;-55
2022/12/24 11:14:40;;;;;;;39.13;8.00;;;9.80;99.90;;;;;;5049978;28;20116;-57
2022/12/24 11:17:05;;;;;;;44.80;8.70;;;9.80;99.90;;;;;;5050523;28;20361;-57
2022/12/24 11:19:39;;;;;;;50.38;8.68;;;9.90;99.90;;;;;;5050787;28;20045;-57
2022/12/24 11:22:16;;;;;;;44.53;8.32;;;9.90;99.90;;;;;;5049122;28;20094;-58
2022/12/24 11:24:42;;;;;;;54.27;11.03;;;9.90;99.90;;;;;;5038272;28;20081;-57
2022/12/24 11:27:30;;;;;;;40.67;7.65;;;9.90;99.90;;;;;;5050074;28;20287;-56
2022/12/24 11:30:14;;;;;;;53.58;8.70;;;9.90;99.90;;;;;;5050639;28;20056;-58
2022/12/24 11:32:47;;;;;;;51.13;9.77;;;9.90;99.90;;;;;;5049091;28;20174;-56
2022/12/24 11:35:20;;;;;;;42.42;7.88;;;10.00;99.90;;;;;;5049532;28;20136;-57
2022/12/24 11:38:07;;;;;;;45.78;8.00;;;10.00;99.90;;;;;;5049711;28;20079;-58
2022/12/24 11:40:36;;;;;;;41.65;7.32;;;10.00;99.90;;;;;;5046392;28;20498;-56
2022/12/24 11:43:04;;;;;;;49.83;8.52;;;10.10;99.90;;;;;;5049059;28;20084;-56
2022/12/24 11:45:31;;;;;;;45.22;8.25;;;10.10;99.90;;;;;;5049824;28;20037;-56
2022/12/24 11:47:58;;;;;;;46.72;8.05;;;10.10;99.90;;;;;;5046899;28;20047;-57
2022/12/24 11:50:28;;;;;;;42.55;7.53;;;10.10;99.90;;;;;;5049931;28;20526;-58
2022/12/24 11:53:03;;;;;;;41.22;7.78;;;10.10;99.90;;;;;;5043345;28;20536;-57
2022/12/24 11:55:40;;;;;;;41.67;9.25;;;10.20;99.90;;;;;;5043535;28;20049;-57
2022/12/24 11:58:37;;;;;;;38.00;9.52;;;10.20;99.90;;;;;;5041806;28;20048;-56
2022/12/24 12:01:19;;;;;;;43.88;7.13;;;10.20;99.90;;;;;;5050159;28;20068;-56
2022/12/24 12:03:54;;;;;;;30.42;5.70;;;10.20;99.90;;;;;;5049381;28;20040;-57
2022/12/24 12:06:24;;;;;;;44.08;7.00;;;10.20;99.90;;;;;;5049144;28;20052;-57
2022/12/24 12:08:54;;;;;;;40.72;8.48;;;10.20;99.90;;;;;;5047993;28;20080;-57
2022/12/24 12:11:20;;;;;;;49.50;7.22;;;10.20;99.90;;;;;;5049165;28;20040;-55
2022/12/24 12:13:47;;;;;;;35.63;6.43;;;10.30;99.90;;;;;;5049051;28;20040;-56
2022/12/24 12:16:27;;;;;;;44.40;7.70;;;10.30;99.90;;;;;;5049067;28;20040;-56
2022/12/24 12:19:05;;;;;;;35.63;6.40;;;10.30;99.90;;;;;;5048819;28;20043;-57
2022/12/24 12:21:41;;;;;;;40.63;7.90;;;10.40;99.90;;;;;;5047695;28;20470;-56
2022/12/24 12:24:14;;;;;;;46.08;6.95;;;10.40;99.90;;;;;;5038133;28;20048;-57
2022/12/24 12:26:41;;;;;;;33.63;6.53;;;10.50;99.90;;;;;;5048650;28;20041;-57
2022/12/24 12:29:30;;;;;;;36.83;6.97;;;10.50;99.90;;;;;;5048365;28;20041;-56
2022/12/24 12:32:01;;;;;;;34.05;5.95;;;10.50;99.90;;;;;;5049348;28;20052;-56
2022/12/24 12:34:39;;;;;;;33.10;5.25;;;10.50;99.90;;;;;;5048200;28;20126;-56
2022/12/24 12:37:10;;;;;;;25.50;4.90;;;10.50;99.90;;;;;;5048863;28;20041;-56
2022/12/24 12:39:36;;;;;;;40.85;6.15;;;10.60;99.90;;;;;;5047284;28;20230;-56
2022/12/24 12:42:43;;;;;;;34.33;6.15;;;10.80;99.90;;;;;;5046688;28;20051;-57
2022/12/24 12:45:21;;;;;;;30.25;4.43;;;10.90;99.90;;;;;;5019209;28;20046;-54
2022/12/24 12:47:52;;;;;;;32.65;5.72;;;10.80;99.90;;;;;;5018930;28;20042;-58
2022/12/24 12:50:29;;;;;;;33.50;7.07;;;10.80;99.90;;;;;;5022112;28;20052;-55
2022/12/24 12:53:10;;;;;;;27.27;5.57;;;10.80;99.90;;;;;;5021910;28;20080;-56
2022/12/24 12:56:01;;;;;;;32.38;5.32;;;10.90;99.90;;;;;;5002651;28;20053;-54
2022/12/24 12:58:32;;;;;;;26.83;4.93;;;11.10;99.90;;;;;;5004664;28;20087;-57
2022/12/24 13:01:24;;;;;;;31.02;5.70;;;11.30;99.90;;;;;;5021412;28;20422;-57
2022/12/24 13:04:00;;;;;;;29.85;4.63;;;11.30;99.90;;;;;;5019909;28;20481;-56
2022/12/24 13:06:52;;;;;;;36.00;4.95;;;11.20;99.90;;;;;;5023120;28;20033;-55